createdAt,value
2022-09-14T00:01:25.743Z,82.88
2022-09-14T00:03:55.720Z,83.64
2022-09-14T00:06:23.459Z,84.22
2022-09-14T00:08:52.131Z,83.65
2022-09-14T00:11:20.458Z,83.46
2022-09-14T00:13:47.853Z,83.25
2022-09-14T00:16:21.043Z,83.24
2022-09-14T00:18:56.407Z,83.71
2022-09-14T00:21:24.054Z,84.84
2022-09-14T00:23:50.871Z,85.49
2022-09-14T00:26:20.991Z,85.28
2022-09-14T00:28:51.358Z,84.59
2022-09-14T00:31:19.150Z,84.44
2022-09-14T00:33:47.783Z,84.28
2022-09-14T00:36:20.659Z,84.43
2022-09-14T00:38:48.655Z,84.34
2022-09-14T00:41:20.078Z,84.26
2022-09-14T00:44:07.796Z,84.33
2022-09-14T00:46:41.358Z,84.49
2022-09-14T00:49:20.666Z,84.56
2022-09-14T00:51:57.182Z,84.60
2022-09-14T00:54:24.990Z,84.67
2022-09-14T00:56:52.583Z,85.04
2022-09-14T00:59:24.693Z,85.32
2022-09-14T01:01:51.626Z,85.66
2022-09-14T01:04:18.307Z,85.73
2022-09-14T01:07:03.687Z,85.64
2022-09-14T01:09:39.439Z,85.80
2022-09-14T01:12:31.196Z,85.63
2022-09-14T01:15:06.951Z,85.62
2022-09-14T01:17:42.699Z,85.59
2022-09-14T01:20:15.984Z,85.74
2022-09-14T01:22:49.835Z,85.57
2022-09-14T01:25:49.934Z,85.30
2022-09-14T01:28:32.045Z,85.42
2022-09-14T01:31:06.609Z,85.56
2022-09-14T01:33:40.759Z,85.42
2022-09-14T01:36:11.828Z,85.31
2022-09-14T01:38:43.457Z,85.31
2022-09-14T01:41:14.121Z,85.27
2022-09-14T01:43:46.259Z,85.07
2022-09-14T01:46:17.909Z,85.00
2022-09-14T01:49:03.466Z,85.12
2022-09-14T01:51:40.989Z,85.54
2022-09-14T01:54:41.353Z,85.52
2022-09-14T01:57:23.842Z,85.52
2022-09-14T01:59:54.113Z,85.38
2022-09-14T02:02:31.868Z,85.51
2022-09-14T02:05:22.077Z,85.31
2022-09-14T02:07:48.783Z,85.16
2022-09-14T02:10:16.591Z,85.06
2022-09-14T02:12:43.914Z,84.87
2022-09-14T02:15:13.625Z,84.74
2022-09-14T02:17:41.369Z,84.72
2022-09-14T02:20:15.258Z,84.87
2022-09-14T02:22:42.294Z,84.81
2022-09-14T02:25:09.181Z,84.60
2022-09-14T02:27:35.830Z,84.37
2022-09-14T02:30:03.757Z,84.19
2022-09-14T02:32:42.590Z,84.14
2022-09-14T02:35:27.446Z,83.94
2022-09-14T02:38:06.112Z,84.08
2022-09-14T02:40:42.362Z,83.92
2022-09-14T02:43:31.202Z,83.75
2022-09-14T02:46:05.580Z,83.70
2022-09-14T02:49:11.828Z,83.54
2022-09-14T02:51:44.639Z,83.54
2022-09-14T02:54:28.184Z,83.54
2022-09-14T02:56:54.853Z,83.65
2022-09-14T02:59:21.515Z,83.80
2022-09-14T03:01:48.161Z,83.78
2022-09-14T03:04:14.923Z,83.88
2022-09-14T03:06:41.615Z,84.02
2022-09-14T03:09:08.417Z,84.37
2022-09-14T03:11:35.403Z,84.36
2022-09-14T03:14:02.124Z,84.30
2022-09-14T03:16:28.896Z,84.67
2022-09-14T03:18:55.593Z,84.96
2022-09-14T03:21:22.580Z,85.42
2022-09-14T03:23:54.699Z,85.69
2022-09-14T03:26:23.110Z,85.67
2022-09-14T03:28:54.993Z,86.44
2022-09-14T03:31:21.758Z,86.91
2022-09-14T03:33:59.907Z,87.22
2022-09-14T03:36:28.487Z,87.00
2022-09-14T03:38:57.493Z,87.16
2022-09-14T03:41:24.696Z,87.38
2022-09-14T03:43:51.980Z,87.92
2022-09-14T03:46:21.567Z,88.26
2022-09-14T03:48:48.600Z,88.90
2022-09-14T03:51:16.414Z,88.93
2022-09-14T03:53:44.645Z,88.87
2022-09-14T03:56:19.533Z,88.76
2022-09-14T03:58:48.198Z,89.05
2022-09-14T04:01:18.687Z,89.25
2022-09-14T04:03:46.185Z,89.38
2022-09-14T04:06:15.443Z,89.28
2022-09-14T04:08:45.791Z,89.23
2022-09-14T04:11:21.460Z,89.24
2022-09-14T04:13:49.412Z,89.27
2022-09-14T04:16:17.327Z,89.20
2022-09-14T04:18:44.347Z,88.99
2022-09-14T04:21:18.481Z,89.12
2022-09-14T04:24:10.647Z,89.05
2022-09-14T04:26:33.664Z,89.15
2022-09-14T04:29:01.023Z,89.35
2022-09-14T04:31:28.074Z,89.35
2022-09-14T04:33:56.630Z,89.15
2022-09-14T04:36:27.720Z,89.22
2022-09-14T04:38:57.002Z,89.41
2022-09-14T04:41:23.999Z,90.03
2022-09-14T04:43:52.216Z,90.05
2022-09-14T04:46:22.101Z,90.01
2022-09-14T04:48:49.948Z,90.08
2022-09-14T04:51:22.870Z,90.02
2022-09-14T04:53:51.812Z,89.93
2022-09-14T04:56:21.804Z,90.01
2022-09-14T04:58:52.137Z,89.80
2022-09-14T05:01:21.705Z,89.76
2022-09-14T05:03:49.424Z,89.70
2022-09-14T05:06:18.628Z,89.62
2022-09-14T05:08:46.583Z,89.38
2022-09-14T05:11:17.375Z,89.32
2022-09-14T05:13:49.541Z,89.14
2022-09-14T05:16:22.793Z,88.82
2022-09-14T05:18:51.160Z,88.33
2022-09-14T05:21:19.735Z,87.77
2022-09-14T05:23:47.660Z,87.43
2022-09-14T05:26:14.706Z,86.84
2022-09-14T05:28:41.524Z,86.31
2022-09-14T05:31:10.717Z,85.22
2022-09-14T05:33:37.392Z,85.05
2022-09-14T05:36:07.049Z,84.48
2022-09-14T05:38:35.370Z,83.83
2022-09-14T05:41:02.596Z,83.42
2022-09-14T05:43:30.859Z,82.65
2022-09-14T05:46:02.690Z,81.70
2022-09-14T05:48:37.068Z,81.56
2022-09-14T05:51:10.783Z,80.51
2022-09-14T05:53:37.490Z,79.06
2022-09-14T05:56:06.280Z,78.85
2022-09-14T05:58:34.035Z,78.19
2022-09-14T06:01:18.201Z,77.39
2022-09-14T06:03:46.479Z,76.07
2022-09-14T06:06:15.211Z,74.52
2022-09-14T06:08:42.652Z,74.03
2022-09-14T06:11:12.928Z,73.07
2022-09-14T06:13:39.498Z,71.64
2022-09-14T06:16:09.230Z,71.69
2022-09-14T06:18:39.492Z,71.34
2022-09-14T06:21:07.970Z,70.90
2022-09-14T06:23:35.074Z,69.79
2022-09-14T06:26:03.932Z,68.67
2022-09-14T06:28:32.040Z,67.76
2022-09-14T06:30:59.462Z,66.33
2022-09-14T06:33:26.150Z,65.32
2022-09-14T06:36:01.142Z,65.05
2022-09-14T06:38:28.939Z,63.68
2022-09-14T06:40:57.517Z,64.19
2022-09-14T06:43:26.005Z,63.60
2022-09-14T06:46:05.280Z,62.86
2022-09-14T06:48:35.837Z,61.85
2022-09-14T06:51:14.195Z,61.67
2022-09-14T06:53:42.155Z,61.12
2022-09-14T06:56:08.740Z,60.17
2022-09-14T06:58:35.757Z,59.43
2022-09-14T07:01:08.214Z,58.81
2022-09-14T07:03:36.699Z,59.25
2022-09-14T07:06:07.898Z,59.40
2022-09-14T07:08:36.583Z,58.64
2022-09-14T07:11:04.660Z,58.63
2022-09-14T07:13:31.704Z,58.52
2022-09-14T07:15:58.372Z,57.88
2022-09-14T07:18:31.737Z,57.90
2022-09-14T07:21:06.421Z,56.45
2022-09-14T07:23:35.757Z,55.82
2022-09-14T07:26:14.742Z,54.72
2022-09-14T07:28:42.895Z,54.53
2022-09-14T07:31:18.950Z,53.93
2022-09-14T07:33:46.343Z,53.25
2022-09-14T07:36:14.099Z,53.20
2022-09-14T07:38:52.212Z,51.49
2022-09-14T07:41:21.510Z,51.36
2022-09-14T07:43:52.376Z,51.98
2022-09-14T07:46:20.753Z,51.55
2022-09-14T07:48:53.575Z,52.11
2022-09-14T07:51:20.276Z,51.82
2022-09-14T07:53:47.111Z,51.84
2022-09-14T07:56:16.040Z,51.18
2022-09-14T07:58:43.747Z,50.19
2022-09-14T08:01:13.206Z,49.96
2022-09-14T08:03:45.494Z,50.15
2022-09-14T08:06:15.047Z,49.70
2022-09-14T08:08:44.141Z,49.20
2022-09-14T08:11:10.630Z,48.27
2022-09-14T08:13:39.891Z,48.91
2022-09-14T08:16:07.285Z,48.68
2022-09-14T08:18:35.390Z,47.49
2022-09-14T08:21:10.984Z,47.02
2022-09-14T08:23:38.558Z,45.79
2022-09-14T08:26:20.848Z,45.72
2022-09-14T08:28:49.799Z,45.15
2022-09-14T08:31:20.475Z,44.41
2022-09-14T08:33:51.454Z,43.84
2022-09-14T08:36:20.259Z,43.10
2022-09-14T08:38:47.586Z,43.31
2022-09-14T08:41:38.921Z,43.14
2022-09-14T08:44:13.655Z,42.31
2022-09-14T08:46:46.936Z,41.80
2022-09-14T08:49:25.402Z,41.50
2022-09-14T08:51:52.303Z,41.19
2022-09-14T08:54:18.927Z,40.44
2022-09-14T08:56:52.218Z,39.83
2022-09-14T08:59:57.469Z,39.53
2022-09-14T09:02:36.082Z,38.65
2022-09-14T09:05:14.826Z,38.69
2022-09-14T09:08:22.628Z,37.44
2022-09-14T09:10:53.126Z,37.04
2022-09-14T09:13:25.693Z,36.74
2022-09-14T09:16:00.000Z,36.44
2022-09-14T09:18:48.795Z,35.42
2022-09-14T09:21:40.471Z,35.68
2022-09-14T09:24:16.540Z,35.62
2022-09-14T09:26:43.077Z,35.65
2022-09-14T09:29:10.957Z,34.80
2022-09-14T09:31:58.499Z,33.67
2022-09-14T09:34:40.984Z,33.60
2022-09-14T09:37:20.218Z,34.52
2022-09-14T09:39:48.579Z,34.26
2022-09-14T09:42:27.539Z,34.05
2022-09-14T09:45:06.473Z,34.29
2022-09-14T09:47:41.380Z,34.00
2022-09-14T09:50:13.958Z,34.31
2022-09-14T09:52:52.597Z,33.75
2022-09-14T09:55:38.366Z,34.39
2022-09-14T09:58:41.923Z,34.22
2022-09-14T10:01:25.906Z,33.90
2022-09-14T10:04:04.445Z,34.43
2022-09-14T10:06:39.515Z,34.42
2022-09-14T10:09:13.052Z,34.59
2022-09-14T10:11:41.148Z,33.67
2022-09-14T10:14:27.848Z,33.74
2022-09-14T10:17:05.718Z,33.70
2022-09-14T10:19:38.061Z,33.45
2022-09-14T10:22:21.957Z,33.69
2022-09-14T10:24:54.651Z,33.94
2022-09-14T10:27:37.145Z,34.45
2022-09-14T10:30:12.669Z,35.04
2022-09-14T10:32:43.113Z,35.64
2022-09-14T10:35:14.918Z,35.48
2022-09-14T10:37:55.904Z,35.71
2022-09-14T10:40:32.721Z,36.19
2022-09-14T10:43:32.086Z,36.60
2022-09-14T10:46:04.119Z,37.12
2022-09-14T10:48:46.312Z,37.41
2022-09-14T10:51:28.955Z,38.05
2022-09-14T10:54:03.319Z,38.68
2022-09-14T10:57:05.691Z,39.44
2022-09-14T10:59:47.021Z,39.81
2022-09-14T11:02:26.116Z,40.63
2022-09-14T11:05:11.198Z,40.99
2022-09-14T11:07:56.365Z,41.56
2022-09-14T11:10:35.526Z,41.64
2022-09-14T11:13:21.779Z,41.15
2022-09-14T11:16:01.386Z,41.15
2022-09-14T11:18:41.897Z,41.23
2022-09-14T11:21:31.622Z,41.70
2022-09-14T11:24:19.057Z,42.06
2022-09-14T11:26:52.098Z,41.82
2022-09-14T11:29:31.491Z,41.69
2022-09-14T11:32:33.268Z,41.64
2022-09-14T11:35:11.232Z,41.28
2022-09-14T11:37:53.552Z,41.54
2022-09-14T11:40:43.997Z,41.66
2022-09-14T11:43:30.748Z,40.98
2022-09-14T11:46:12.132Z,40.44
2022-09-14T11:49:03.140Z,40.27
2022-09-14T11:51:41.072Z,39.97
2022-09-14T11:54:16.250Z,40.52
2022-09-14T11:56:50.493Z,40.52
2022-09-14T11:59:59.357Z,40.58
2022-09-14T12:02:27.004Z,40.70
2022-09-14T12:05:06.299Z,41.01
2022-09-14T12:07:39.436Z,41.29
2022-09-14T12:10:15.453Z,41.02
2022-09-14T12:12:54.582Z,40.95
2022-09-14T12:15:24.265Z,41.19
2022-09-14T12:18:10.763Z,41.97
2022-09-14T12:20:37.811Z,42.22
2022-09-14T12:23:20.627Z,42.31
2022-09-14T12:26:04.573Z,42.63
2022-09-14T12:28:34.286Z,42.76
2022-09-14T12:31:03.943Z,42.51
2022-09-14T12:33:30.861Z,42.77
2022-09-14T12:36:10.411Z,42.83
2022-09-14T12:38:40.609Z,42.86
2022-09-14T12:41:10.656Z,42.89
2022-09-14T12:43:47.202Z,43.25
2022-09-14T12:46:20.134Z,43.73
2022-09-14T12:48:46.977Z,43.89
2022-09-14T12:51:28.950Z,44.58
2022-09-14T12:54:01.386Z,45.77
2022-09-14T12:57:13.651Z,46.74
2022-09-14T12:59:46.428Z,47.60
2022-09-14T13:02:37.733Z,48.02
2022-09-14T13:05:07.654Z,48.42
2022-09-14T13:07:36.046Z,48.46
2022-09-14T13:10:05.926Z,49.15
2022-09-14T13:12:46.752Z,50.23
2022-09-14T13:15:17.319Z,51.04
2022-09-14T13:18:03.239Z,51.09
2022-09-14T13:20:39.209Z,51.25
2022-09-14T13:23:20.867Z,51.03
2022-09-14T13:25:55.807Z,50.98
2022-09-14T13:28:26.098Z,50.93
2022-09-14T13:30:55.896Z,50.95
2022-09-14T13:33:23.476Z,51.16
2022-09-14T13:35:54.156Z,51.32
2022-09-14T13:38:33.939Z,51.26
2022-09-14T13:41:28.354Z,51.75
2022-09-14T13:43:56.726Z,52.17
2022-09-14T13:46:26.710Z,52.76
2022-09-14T13:49:07.421Z,53.40
2022-09-14T13:51:34.914Z,53.40
2022-09-14T13:54:29.282Z,53.28
2022-09-14T13:57:19.836Z,53.29
2022-09-14T14:00:15.898Z,52.88
2022-09-14T14:03:00.206Z,52.27
2022-09-14T14:05:28.989Z,51.07
2022-09-14T14:07:58.373Z,50.62
2022-09-14T14:10:39.458Z,50.54
2022-09-14T14:13:06.557Z,50.41
2022-09-14T14:15:41.597Z,49.88
2022-09-14T14:18:38.810Z,49.09
2022-09-14T14:21:24.773Z,48.60
2022-09-14T14:24:12.013Z,48.45
2022-09-14T14:26:47.929Z,48.36
2022-09-14T14:29:15.908Z,48.72
2022-09-14T14:31:43.839Z,48.78
2022-09-14T14:34:23.746Z,48.75
2022-09-14T14:36:51.318Z,48.96
2022-09-14T14:39:24.386Z,48.60
2022-09-14T14:41:52.270Z,48.30
2022-09-14T14:44:22.682Z,49.17
2022-09-14T14:46:49.829Z,50.35
2022-09-14T14:49:18.673Z,50.59
2022-09-14T14:51:46.238Z,50.64
2022-09-14T14:54:16.120Z,50.61
2022-09-14T14:56:48.281Z,50.95
2022-09-14T14:59:22.097Z,50.81
2022-09-14T15:01:51.432Z,50.72
2022-09-14T15:04:18.339Z,50.70
2022-09-14T15:06:46.837Z,51.04
2022-09-14T15:09:16.444Z,51.14
2022-09-14T15:11:43.471Z,51.24
2022-09-14T15:14:15.445Z,51.67
2022-09-14T15:16:43.257Z,51.78
2022-09-14T15:19:10.578Z,52.02
2022-09-14T15:21:39.361Z,52.20
2022-09-14T15:24:06.735Z,52.32
2022-09-14T15:26:33.906Z,52.34
2022-09-14T15:29:01.246Z,52.67
2022-09-14T15:31:28.454Z,52.89
2022-09-14T15:33:55.208Z,52.87
2022-09-14T15:36:43.144Z,52.97
2022-09-14T15:39:13.293Z,52.91
2022-09-14T15:41:45.127Z,52.99
2022-09-14T15:44:15.897Z,53.38
2022-09-14T15:46:44.762Z,53.39
2022-09-14T15:49:34.178Z,53.55
2022-09-14T15:52:30.734Z,53.80
2022-09-14T15:55:13.888Z,54.20
2022-09-14T15:57:44.228Z,54.43
2022-09-14T16:00:13.819Z,54.52
2022-09-14T16:02:41.798Z,54.58
2022-09-14T16:05:10.722Z,54.81
2022-09-14T16:07:42.979Z,54.88
2022-09-14T16:10:09.853Z,55.00
2022-09-14T16:12:36.494Z,54.98
2022-09-14T16:15:03.432Z,54.86
2022-09-14T16:17:30.203Z,54.91
2022-09-14T16:19:57.231Z,55.03
2022-09-14T16:22:24.743Z,55.16
2022-09-14T16:24:51.449Z,55.35
2022-09-14T16:27:18.422Z,55.65
2022-09-14T16:29:45.074Z,55.76
2022-09-14T16:32:12.883Z,55.80
2022-09-14T16:34:39.732Z,56.07
2022-09-14T16:37:06.551Z,56.15
2022-09-14T16:39:34.589Z,56.26
2022-09-14T16:42:01.341Z,56.31
2022-09-14T16:44:28.588Z,56.41
2022-09-14T16:46:57.379Z,56.53
2022-09-14T16:49:27.769Z,56.56
2022-09-14T16:51:57.005Z,56.78
2022-09-14T16:54:25.014Z,57.04
2022-09-14T16:56:55.579Z,57.14
2022-09-14T16:59:22.710Z,57.29
2022-09-14T17:01:54.259Z,57.44
2022-09-14T17:04:23.239Z,57.64
2022-09-14T17:06:51.923Z,57.64
2022-09-14T17:09:22.653Z,57.61
2022-09-14T17:11:50.370Z,57.83
2022-09-14T17:14:20.189Z,57.83
2022-09-14T17:16:47.719Z,57.96
2022-09-14T17:19:15.323Z,58.20
2022-09-14T17:21:43.759Z,58.32
2022-09-14T17:24:11.969Z,58.35
2022-09-14T17:26:38.855Z,58.46
2022-09-14T17:29:07.298Z,58.62
2022-09-14T17:31:39.448Z,58.80
2022-09-14T17:34:08.602Z,58.69
2022-09-14T17:36:35.653Z,58.69
2022-09-14T17:39:07.893Z,58.71
2022-09-14T17:41:38.456Z,58.79
2022-09-14T17:44:06.678Z,58.60
2022-09-14T17:46:34.004Z,58.55
2022-09-14T17:49:05.465Z,58.63
2022-09-14T17:51:35.765Z,58.71
2022-09-14T17:54:03.255Z,58.78
2022-09-14T17:56:30.417Z,58.87
2022-09-14T17:59:19.428Z,58.95
2022-09-14T18:01:47.361Z,58.97
2022-09-14T18:04:17.280Z,58.98
2022-09-14T18:06:47.688Z,59.13
2022-09-14T18:09:17.249Z,59.63
2022-09-14T18:11:44.937Z,59.61
2022-09-14T18:14:15.360Z,59.75
2022-09-14T18:16:44.236Z,59.68
2022-09-14T18:19:11.518Z,59.90
2022-09-14T18:21:38.838Z,59.95
2022-09-14T18:24:06.370Z,60.05
2022-09-14T18:26:33.582Z,60.22
2022-09-14T18:29:00.219Z,60.36
2022-09-14T18:31:27.375Z,60.47
2022-09-14T18:34:01.279Z,60.67
2022-09-14T18:36:29.969Z,60.86
2022-09-14T18:39:00.228Z,60.97
2022-09-14T18:41:35.301Z,60.93
2022-09-14T18:44:05.370Z,61.08
2022-09-14T18:46:34.334Z,61.05
2022-09-14T18:49:02.803Z,61.15
2022-09-14T18:51:32.290Z,61.17
2022-09-14T18:54:05.584Z,61.38
2022-09-14T18:56:34.460Z,61.52
2022-09-14T18:59:04.639Z,61.57
2022-09-14T19:01:33.889Z,61.54
2022-09-14T19:04:03.236Z,61.59
2022-09-14T19:06:30.857Z,61.89
2022-09-14T19:08:57.871Z,61.62
2022-09-14T19:11:28.611Z,61.69
2022-09-14T19:13:56.953Z,61.78
2022-09-14T19:16:24.207Z,62.00
2022-09-14T19:18:51.057Z,62.22
2022-09-14T19:21:23.840Z,62.49
2022-09-14T19:24:02.679Z,62.79
2022-09-14T19:26:32.670Z,62.87
2022-09-14T19:29:01.156Z,62.76
2022-09-14T19:31:30.741Z,62.73
2022-09-14T19:34:00.448Z,62.67
2022-09-14T19:36:28.543Z,63.00
2022-09-14T19:39:00.726Z,63.09
2022-09-14T19:41:27.915Z,63.12
2022-09-14T19:43:54.945Z,63.39
2022-09-14T19:46:25.307Z,63.27
2022-09-14T19:48:52.612Z,63.22
2022-09-14T19:51:22.411Z,63.54
2022-09-14T19:53:51.524Z,63.36
2022-09-14T19:56:21.680Z,63.17
2022-09-14T19:58:50.736Z,63.24
2022-09-14T20:01:19.031Z,63.35
2022-09-14T20:03:46.948Z,63.32
2022-09-14T20:06:22.152Z,63.35
2022-09-14T20:08:52.433Z,63.84
2022-09-14T20:11:22.879Z,63.90
2022-09-14T20:13:50.396Z,64.17
2022-09-14T20:16:20.777Z,65.01
2022-09-14T20:18:49.438Z,64.90
2022-09-14T20:21:23.074Z,64.88
2022-09-14T20:24:17.446Z,65.14
2022-09-14T20:26:47.118Z,65.72
2022-09-14T20:29:15.456Z,65.62
2022-09-14T20:31:42.925Z,65.82
2022-09-14T20:34:10.529Z,65.77
2022-09-14T20:36:37.680Z,65.91
2022-09-14T20:39:07.656Z,66.50
2022-09-14T20:41:37.763Z,66.40
2022-09-14T20:44:05.201Z,66.72
2022-09-14T20:46:36.037Z,66.75
2022-09-14T20:49:12.182Z,67.05
2022-09-14T20:51:39.776Z,68.15
2022-09-14T20:54:08.067Z,69.19
2022-09-14T20:56:39.067Z,69.07
2022-09-14T20:59:09.060Z,69.72
2022-09-14T21:01:37.986Z,69.45
2022-09-14T21:04:08.652Z,69.24
2022-09-14T21:06:38.685Z,69.57
2022-09-14T21:09:07.051Z,69.83
2022-09-14T21:11:34.218Z,69.91
2022-09-14T21:14:01.089Z,70.26
2022-09-14T21:16:42.291Z,71.26
2022-09-14T21:19:21.534Z,71.29
2022-09-14T21:21:49.663Z,71.46
2022-09-14T21:24:20.592Z,71.67
2022-09-14T21:26:48.108Z,71.98
2022-09-14T21:29:22.497Z,72.28
2022-09-14T21:31:50.756Z,72.52
2022-09-14T21:34:17.690Z,73.12
2022-09-14T21:36:48.544Z,73.11
2022-09-14T21:39:20.946Z,73.57
2022-09-14T21:41:49.096Z,73.62
2022-09-14T21:44:16.450Z,73.44
2022-09-14T21:46:45.976Z,73.78
2022-09-14T21:49:15.803Z,73.84
2022-09-14T21:51:43.920Z,74.28
2022-09-14T21:54:12.957Z,74.31
2022-09-14T21:56:42.345Z,74.57
2022-09-14T21:59:12.403Z,74.49
2022-09-14T22:01:40.021Z,74.40
2022-09-14T22:04:07.838Z,74.50
2022-09-14T22:06:35.082Z,74.51
2022-09-14T22:09:02.037Z,74.66
2022-09-14T22:11:34.487Z,75.29
2022-09-14T22:14:07.351Z,75.87
2022-09-14T22:16:35.368Z,76.33
2022-09-14T22:19:05.254Z,76.92
2022-09-14T22:21:34.484Z,77.07
2022-09-14T22:24:05.619Z,77.78
2022-09-14T22:26:33.768Z,78.06
2022-09-14T22:29:00.873Z,78.08
2022-09-14T22:31:29.493Z,77.97
2022-09-14T22:33:57.953Z,78.12
2022-09-14T22:36:26.172Z,78.91
2022-09-14T22:39:00.233Z,79.04
2022-09-14T22:41:28.197Z,78.64
2022-09-14T22:43:55.819Z,78.16
2022-09-14T22:46:23.848Z,78.05
2022-09-14T22:48:52.179Z,78.33
2022-09-14T22:51:22.604Z,78.40
2022-09-14T22:53:49.808Z,78.57
2022-09-14T22:56:30.684Z,78.64
2022-09-14T22:58:59.611Z,79.25
2022-09-14T23:01:29.388Z,79.36
2022-09-14T23:03:59.308Z,79.21
2022-09-14T23:06:40.851Z,78.91
2022-09-14T23:09:10.396Z,79.45
2022-09-14T23:11:37.710Z,79.58
2022-09-14T23:14:04.739Z,79.39
2022-09-14T23:16:31.723Z,80.10
2022-09-14T23:19:06.287Z,81.17
2022-09-14T23:21:34.511Z,80.76
2022-09-14T23:24:04.741Z,80.80
2022-09-14T23:26:33.343Z,81.13
2022-09-14T23:29:03.682Z,81.14
2022-09-14T23:31:31.994Z,81.20
2022-09-14T23:34:02.724Z,81.55
2022-09-14T23:36:29.830Z,81.54
2022-09-14T23:38:57.058Z,81.64
2022-09-14T23:41:26.330Z,81.62
2022-09-14T23:43:53.979Z,81.66
2022-09-14T23:46:21.039Z,81.92
2022-09-14T23:48:48.483Z,82.17
2022-09-14T23:51:15.630Z,82.05
2022-09-14T23:53:45.547Z,81.84
2022-09-14T23:56:14.281Z,82.09
2022-09-14T23:58:41.716Z,82.01
